Time;durP1;ratioP1;P1;durP2;ratioP2;P2;SDS_P1;SDS_P2;PMS_P1;PMS_P2;Temp;Humidity;BMP_temperature;BMP_pressure;BME280_temperature;BME280_humidity;BME280_pressure;Samples;Min_cycle;Max_cycle;Signal;HPM_P1;HPM_P2
2022/06/30 00:01:01;;;;;;;5.23;4.27;;;;;;;;;;4970898;28;20663;-72
2022/06/30 00:03:27;;;;;;;4.60;4.20;;;;;;;;;;4969713;28;20252;-72
2022/06/30 00:05:53;;;;;;;5.17;4.77;;;;;;;;;;4969685;28;20223;-72
2022/06/30 00:08:20;;;;;;;7.13;4.70;;;;;;;;;;4969933;28;20185;-72
2022/06/30 00:10:46;;;;;;;4.73;4.33;;;;;;;;;;4971389;28;20276;-72
2022/06/30 00:13:12;;;;;;;4.70;4.30;;;;;;;;;;4971655;28;20555;-72
2022/06/30 00:15:38;;;;;;;4.57;4.17;;;;;;;;;;4970811;28;20220;-72
2022/06/30 00:18:05;;;;;;;5.17;4.67;;;;;;;;;;4969797;28;20196;-72
2022/06/30 00:20:31;;;;;;;4.30;3.90;;;;;;;;;;4971180;28;20727;-72
2022/06/30 00:22:57;;;;;;;5.23;4.80;;;;;;;;;;4970614;28;20243;-72
2022/06/30 00:25:23;;;;;;;5.40;4.90;;;;;;;;;;4969852;28;20192;-72
2022/06/30 00:27:49;;;;;;;7.07;4.67;;;;;;;;;;4969172;28;20194;-72
2022/06/30 00:30:15;;;;;;;5.17;4.70;;;;;;;;;;4969951;28;20224;-72
2022/06/30 00:32:42;;;;;;;4.50;4.10;;;;;;;;;;4959757;28;20181;-72
2022/06/30 00:35:08;;;;;;;4.73;4.33;;;;;;;;;;4969425;28;20192;-72
2022/06/30 00:37:34;;;;;;;4.40;4.00;;;;;;;;;;4975712;28;20180;-72
2022/06/30 00:40:00;;;;;;;6.87;4.43;;;;;;;;;;4973206;28;20231;-72
2022/06/30 00:42:27;;;;;;;4.93;4.27;;;;;;;;;;4972368;28;20236;-72
2022/06/30 00:44:53;;;;;;;7.47;4.10;;;;;;;;;;4969376;28;20184;-72
2022/06/30 00:47:19;;;;;;;4.90;3.80;;;;;;;;;;4971958;28;20668;-72
2022/06/30 00:49:45;;;;;;;4.40;4.00;;;;;;;;;;4971057;28;20653;-72
2022/06/30 00:52:12;;;;;;;4.50;3.73;;;;;;;;;;4970856;28;20235;-72
2022/06/30 00:54:38;;;;;;;6.43;4.63;;;;;;;;;;4972023;28;20189;-72
2022/06/30 00:57:08;;;;;;;6.93;4.40;;;;;;;;;;4969292;28;20176;-72
2022/06/30 00:59:35;;;;;;;4.83;4.40;;;;;;;;;;4969482;28;20181;-72
2022/06/30 01:02:02;;;;;;;5.90;4.60;;;;;;;;;;4970476;28;20204;-72
2022/06/30 01:04:29;;;;;;;5.90;4.87;;;;;;;;;;4970776;28;20216;-72
2022/06/30 01:06:56;;;;;;;6.80;4.90;;;;;;;;;;4969168;28;20258;-72
2022/06/30 01:14:52;;;;;;;6.00;5.17;;;;;;;;;;4961804;28;20557;-72
2022/06/30 01:17:19;;;;;;;6.33;5.70;;;;;;;;;;4963621;28;20263;-72
2022/06/30 01:19:52;;;;;;;7.10;6.40;;;;;;;;;;4962344;28;20657;-72
2022/06/30 01:22:18;;;;;;;6.47;5.80;;;;;;;;;;4963354;28;20231;-72
2022/06/30 01:24:44;;;;;;;6.80;6.20;;;;;;;;;;4968387;28;20181;-72
2022/06/30 01:27:11;;;;;;;8.97;6.40;;;;;;;;;;4964502;28;20184;-72
2022/06/30 01:29:37;;;;;;;7.40;6.10;;;;;;;;;;4968378;28;20204;-72
2022/06/30 01:32:04;;;;;;;5.60;5.07;;;;;;;;;;4972211;28;20535;-72
2022/06/30 01:34:30;;;;;;;5.93;5.43;;;;;;;;;;4970220;28;20189;-72
2022/06/30 01:36:56;;;;;;;6.20;5.63;;;;;;;;;;4965755;28;20213;-72
2022/06/30 01:39:23;;;;;;;6.83;6.23;;;;;;;;;;4969054;28;20206;-72
2022/06/30 01:41:49;;;;;;;6.13;5.47;;;;;;;;;;4970085;28;20731;-72
2022/06/30 01:44:15;;;;;;;6.10;5.47;;;;;;;;;;4965562;28;20188;-72
2022/06/30 01:46:48;;;;;;;6.30;5.70;;;;;;;;;;4966445;28;20185;-72
2022/06/30 01:49:14;;;;;;;6.77;5.60;;;;;;;;;;4969552;28;20213;-72
2022/06/30 01:51:40;;;;;;;6.90;5.70;;;;;;;;;;4969594;28;20343;-72
2022/06/30 01:54:08;;;;;;;5.97;5.40;;;;;;;;;;4968732;28;20192;-72
2022/06/30 01:56:37;;;;;;;6.23;5.73;;;;;;;;;;4969526;28;20255;-72
2022/06/30 01:59:04;;;;;;;6.87;6.17;;;;;;;;;;4967908;28;20194;-72
2022/06/30 02:01:30;;;;;;;7.63;5.93;;;;;;;;;;4969255;28;20208;-72
2022/06/30 02:03:56;;;;;;;6.27;5.77;;;;;;;;;;4963818;28;20185;-72
2022/06/30 02:06:22;;;;;;;5.37;4.87;;;;;;;;;;4965712;28;22423;-72
2022/06/30 02:08:49;;;;;;;5.97;5.43;;;;;;;;;;4969620;28;20271;-72
2022/06/30 02:11:15;;;;;;;5.60;5.00;;;;;;;;;;4963306;28;20208;-72
2022/06/30 02:13:42;;;;;;;5.33;4.83;;;;;;;;;;4967490;28;20283;-72
2022/06/30 02:16:08;;;;;;;5.80;5.20;;;;;;;;;;4968908;28;20687;-72
2022/06/30 02:18:34;;;;;;;6.00;5.40;;;;;;;;;;4965005;28;20244;-72
2022/06/30 02:21:01;;;;;;;5.40;4.90;;;;;;;;;;4964748;28;20212;-72
2022/06/30 02:23:27;;;;;;;6.03;5.43;;;;;;;;;;4963962;28;20184;-72
2022/06/30 02:25:53;;;;;;;5.60;5.07;;;;;;;;;;4963219;28;20255;-72
2022/06/30 02:28:19;;;;;;;6.33;5.40;;;;;;;;;;4962579;28;20200;-72
2022/06/30 02:30:45;;;;;;;7.43;5.50;;;;;;;;;;4967034;28;20208;-72
2022/06/30 02:33:13;;;;;;;6.23;5.33;;;;;;;;;;4967451;28;20188;-72
2022/06/30 02:35:39;;;;;;;6.90;5.47;;;;;;;;;;4962508;28;20303;-72
2022/06/30 02:38:11;;;;;;;6.40;5.80;;;;;;;;;;4964700;28;20210;-72
2022/06/30 02:40:37;;;;;;;5.77;5.20;;;;;;;;;;4971010;28;20212;-72
2022/06/30 02:43:04;;;;;;;6.87;5.60;;;;;;;;;;4965285;28;20205;-72
2022/06/30 02:45:30;;;;;;;5.73;5.17;;;;;;;;;;4966533;28;20184;-72
2022/06/30 02:47:58;;;;;;;6.10;5.27;;;;;;;;;;4964541;28;20224;-72
2022/06/30 02:50:25;;;;;;;5.97;5.30;;;;;;;;;;4971306;28;20204;-72
2022/06/30 02:52:51;;;;;;;6.23;5.20;;;;;;;;;;4971551;28;20597;-72
2022/06/30 02:55:17;;;;;;;5.70;5.10;;;;;;;;;;4967338;28;20251;-72
2022/06/30 02:57:43;;;;;;;6.70;5.17;;;;;;;;;;4967233;28;20212;-72
2022/06/30 03:00:11;;;;;;;5.80;5.20;;;;;;;;;;4968739;28;20176;-72
2022/06/30 03:02:37;;;;;;;5.40;4.90;;;;;;;;;;4967786;28;20249;-72
2022/06/30 03:05:04;;;;;;;7.07;5.40;;;;;;;;;;4967716;28;20208;-72
2022/06/30 03:07:30;;;;;;;6.33;5.70;;;;;;;;;;4970873;28;20275;-72
2022/06/30 03:09:56;;;;;;;6.40;5.50;;;;;;;;;;4968965;28;20212;-72
2022/06/30 03:12:22;;;;;;;7.03;5.70;;;;;;;;;;4969880;28;20303;-72
2022/06/30 03:14:49;;;;;;;8.70;5.87;;;;;;;;;;4968099;28;21403;-72
2022/06/30 03:17:15;;;;;;;7.23;5.80;;;;;;;;;;4966789;28;20291;-72
2022/06/30 03:19:41;;;;;;;6.07;5.47;;;;;;;;;;4970094;28;20184;-72
2022/06/30 03:22:07;;;;;;;6.47;5.83;;;;;;;;;;4969254;28;20702;-72
2022/06/30 03:24:33;;;;;;;7.53;6.00;;;;;;;;;;4969732;28;20188;-72
2022/06/30 03:26:59;;;;;;;6.93;5.70;;;;;;;;;;4967478;28;20181;-72
2022/06/30 03:29:26;;;;;;;6.20;5.60;;;;;;;;;;4967053;28;20239;-72
2022/06/30 03:31:52;;;;;;;6.80;5.40;;;;;;;;;;4968696;28;20223;-72
2022/06/30 03:34:18;;;;;;;6.23;5.30;;;;;;;;;;4967235;28;20208;-72
2022/06/30 03:36:44;;;;;;;6.30;5.70;;;;;;;;;;4968571;28;20640;-72
2022/06/30 03:39:10;;;;;;;5.53;5.07;;;;;;;;;;4967357;28;20280;-72
2022/06/30 03:41:36;;;;;;;6.00;5.50;;;;;;;;;;4971563;28;20223;-72
2022/06/30 03:44:03;;;;;;;6.00;5.50;;;;;;;;;;4970938;28;20186;-72
2022/06/30 03:46:29;;;;;;;8.07;5.90;;;;;;;;;;4966772;28;20206;-72
2022/06/30 03:48:55;;;;;;;8.43;6.13;;;;;;;;;;4961961;28;20196;-72
2022/06/30 03:51:21;;;;;;;6.27;5.67;;;;;;;;;;4964345;28;20259;-72
2022/06/30 03:53:47;;;;;;;6.17;5.57;;;;;;;;;;4965630;28;20184;-72
2022/06/30 03:56:14;;;;;;;6.33;5.63;;;;;;;;;;4961983;28;20586;-72
2022/06/30 03:58:40;;;;;;;10.77;6.00;;;;;;;;;;4965803;28;21396;-72
2022/06/30 04:01:06;;;;;;;7.10;5.70;;;;;;;;;;4964053;28;20294;-72
2022/06/30 04:03:32;;;;;;;8.77;5.90;;;;;;;;;;4960457;28;20766;-72
2022/06/30 04:05:58;;;;;;;6.23;5.63;;;;;;;;;;4965047;28;20231;-72
2022/06/30 04:08:25;;;;;;;6.00;5.50;;;;;;;;;;4962862;28;20219;-72
2022/06/30 04:10:51;;;;;;;6.47;5.60;;;;;;;;;;4961581;28;20211;-72
2022/06/30 04:13:18;;;;;;;5.80;5.30;;;;;;;;;;4963506;28;20184;-72
2022/06/30 04:15:44;;;;;;;7.37;5.63;;;;;;;;;;4963084;28;20704;-72
2022/06/30 04:18:10;;;;;;;6.47;5.40;;;;;;;;;;4966684;28;20192;-72
2022/06/30 04:20:36;;;;;;;6.50;5.70;;;;;;;;;;4964390;28;20295;-72
2022/06/30 04:23:03;;;;;;;5.47;5.07;;;;;;;;;;4964396;28;20227;-72
2022/06/30 04:25:29;;;;;;;5.80;5.30;;;;;;;;;;4964773;28;20197;-72
2022/06/30 04:27:58;;;;;;;7.27;5.70;;;;;;;;;;4962638;28;21157;-72
2022/06/30 04:33:09;;;;;;;6.23;5.63;;;;;;;;;;4961576;28;20716;-72
2022/06/30 04:35:35;;;;;;;7.53;4.80;;;;;;;;;;4961492;28;20676;-72
2022/06/30 04:38:02;;;;;;;5.27;4.60;;;;;;;;;;4962016;28;20188;-72
2022/06/30 04:43:14;;;;;;;5.70;4.40;;;;;;;;;;4963417;28;20188;-72
2022/06/30 04:45:40;;;;;;;5.93;4.10;;;;;;;;;;4965210;28;20548;-72
2022/06/30 04:48:06;;;;;;;5.20;3.97;;;;;;;;;;4964123;28;20181;-72
2022/06/30 04:50:33;;;;;;;5.13;4.63;;;;;;;;;;4966014;28;20216;-72
2022/06/30 04:52:59;;;;;;;6.47;4.93;;;;;;;;;;4966895;28;20183;-72
2022/06/30 04:55:25;;;;;;;5.77;5.17;;;;;;;;;;4966079;28;20585;-72
2022/06/30 04:57:51;;;;;;;7.70;5.37;;;;;;;;;;4963178;28;20263;-72
2022/06/30 05:00:17;;;;;;;5.87;5.20;;;;;;;;;;4961275;28;20211;-72
2022/06/30 05:02:43;;;;;;;5.17;4.67;;;;;;;;;;4962667;28;20192;-72
2022/06/30 05:05:10;;;;;;;5.50;4.47;;;;;;;;;;4966102;28;20184;-72
2022/06/30 05:07:36;;;;;;;5.83;4.57;;;;;;;;;;4966784;28;20196;-72
2022/06/30 05:10:03;;;;;;;7.93;5.07;;;;;;;;;;4968901;28;20204;-72
2022/06/30 05:12:29;;;;;;;7.57;5.30;;;;;;;;;;4965829;28;20569;-72
2022/06/30 05:14:55;;;;;;;6.93;4.90;;;;;;;;;;4968038;28;21704;-77
2022/06/30 05:17:22;;;;;;;5.80;4.53;;;;;;;;;;4969518;28;20235;-73
2022/06/30 05:19:48;;;;;;;5.83;4.80;;;;;;;;;;4971715;28;20188;-73
2022/06/30 05:22:14;;;;;;;8.17;5.23;;;;;;;;;;4970849;28;20583;-73
2022/06/30 05:27:46;;;;;;;4.97;4.47;;;;;;;;;;4907249;29;20820;-73
2022/06/30 05:30:13;;;;;;;5.87;4.87;;;;;;;;;;4956014;28;20649;-73
2022/06/30 05:32:39;;;;;;;5.83;4.60;;;;;;;;;;4969422;28;20189;-75
2022/06/30 05:35:06;;;;;;;5.73;5.07;;;;;;;;;;4970276;28;20247;-74
2022/06/30 05:37:32;;;;;;;5.37;4.87;;;;;;;;;;4973320;28;20637;-74
2022/06/30 05:39:58;;;;;;;5.90;4.60;;;;;;;;;;4974254;28;20547;-73
2022/06/30 05:42:24;;;;;;;8.60;4.57;;;;;;;;;;4972448;28;20216;-73
2022/06/30 05:44:50;;;;;;;5.70;4.97;;;;;;;;;;4974522;28;20176;-73
2022/06/30 05:47:16;;;;;;;5.23;4.73;;;;;;;;;;4971016;28;20188;-73
2022/06/30 05:49:43;;;;;;;8.60;5.43;;;;;;;;;;4971378;28;20223;-74
2022/06/30 05:52:09;;;;;;;5.40;4.90;;;;;;;;;;4972364;28;20193;-73
2022/06/30 05:54:35;;;;;;;5.73;5.00;;;;;;;;;;4974257;28;20188;-73
2022/06/30 05:57:01;;;;;;;5.53;4.73;;;;;;;;;;4955909;28;20212;-73
2022/06/30 05:59:27;;;;;;;6.10;4.53;;;;;;;;;;4970951;28;20180;-73
2022/06/30 06:01:54;;;;;;;10.17;4.80;;;;;;;;;;4967877;28;20224;-73
2022/06/30 06:04:20;;;;;;;5.40;4.90;;;;;;;;;;4972193;28;20189;-73
2022/06/30 06:06:46;;;;;;;5.10;4.60;;;;;;;;;;4954888;28;20208;-73
2022/06/30 06:09:12;;;;;;;5.73;4.70;;;;;;;;;;4971773;28;20188;-74
2022/06/30 06:11:38;;;;;;;7.33;4.93;;;;;;;;;;4970753;28;20240;-73
2022/06/30 06:14:05;;;;;;;5.67;4.43;;;;;;;;;;4969424;28;20189;-73
2022/06/30 06:16:31;;;;;;;4.90;4.23;;;;;;;;;;4972410;28;20216;-73
2022/06/30 06:18:57;;;;;;;4.40;4.00;;;;;;;;;;4971370;28;20192;-73
2022/06/30 06:21:24;;;;;;;4.70;4.20;;;;;;;;;;4973554;28;20215;-73
2022/06/30 06:23:50;;;;;;;6.80;4.30;;;;;;;;;;4972544;28;20188;-73
2022/06/30 06:26:16;;;;;;;4.60;4.20;;;;;;;;;;4971173;28;20188;-73
2022/06/30 06:31:27;;;;;;;6.37;4.20;;;;;;;;;;4969759;28;20318;-73
2022/06/30 06:33:53;;;;;;;4.60;3.93;;;;;;;;;;4969960;28;20250;-78
2022/06/30 06:36:20;;;;;;;4.20;3.80;;;;;;;;;;4970313;28;20209;-73
2022/06/30 06:38:46;;;;;;;5.70;4.10;;;;;;;;;;4972921;28;20628;-73
2022/06/30 06:41:12;;;;;;;5.83;4.13;;;;;;;;;;4971006;28;20223;-73
2022/06/30 06:43:38;;;;;;;4.73;4.27;;;;;;;;;;4970073;28;20260;-73
2022/06/30 06:46:05;;;;;;;5.03;4.03;;;;;;;;;;4970990;28;20184;-73
2022/06/30 06:48:34;;;;;;;5.57;4.10;;;;;;;;;;4969068;28;20624;-73
2022/06/30 06:51:00;;;;;;;3.87;3.57;;;;;;;;;;4968834;28;20204;-73
2022/06/30 06:53:26;;;;;;;6.80;4.30;;;;;;;;;;4971838;28;20332;-76
2022/06/30 06:55:53;;;;;;;7.50;4.43;;;;;;;;;;4949532;28;20216;-72
2022/06/30 06:58:19;;;;;;;4.70;4.10;;;;;;;;;;4966828;28;20223;-72
2022/06/30 07:00:45;;;;;;;6.27;4.47;;;;;;;;;;4969551;28;20226;-73
2022/06/30 07:03:12;;;;;;;4.77;4.27;;;;;;;;;;4955459;28;20188;-73
2022/06/30 07:05:39;;;;;;;6.63;4.33;;;;;;;;;;4954243;28;20903;-73
2022/06/30 07:08:05;;;;;;;5.40;4.50;;;;;;;;;;4969864;28;20185;-72
2022/06/30 07:10:31;;;;;;;4.97;4.47;;;;;;;;;;4967871;28;20212;-72
2022/06/30 07:12:58;;;;;;;9.80;4.80;;;;;;;;;;4967293;28;20634;-72
2022/06/30 07:15:24;;;;;;;5.93;4.30;;;;;;;;;;4968462;28;20229;-71
2022/06/30 07:17:50;;;;;;;4.80;4.27;;;;;;;;;;4968097;28;20195;-73
2022/06/30 07:20:16;;;;;;;5.23;4.17;;;;;;;;;;4968319;28;20185;-73
2022/06/30 07:22:42;;;;;;;5.93;4.37;;;;;;;;;;4964582;28;20713;-73
2022/06/30 07:25:09;;;;;;;4.47;4.07;;;;;;;;;;4962830;28;20185;-73
2022/06/30 07:27:35;;;;;;;7.47;4.50;;;;;;;;;;4966333;28;20195;-72
2022/06/30 07:30:02;;;;;;;8.70;4.50;;;;;;;;;;4963245;28;20201;-73
2022/06/30 07:32:28;;;;;;;4.83;4.37;;;;;;;;;;4963751;28;20580;-73
2022/06/30 07:34:54;;;;;;;4.87;4.27;;;;;;;;;;4966605;28;20256;-73
2022/06/30 07:37:20;;;;;;;6.27;4.87;;;;;;;;;;4952364;28;20255;-74
2022/06/30 07:39:46;;;;;;;7.27;4.67;;;;;;;;;;4963170;28;20191;-74
2022/06/30 07:42:13;;;;;;;5.33;4.30;;;;;;;;;;4966119;28;20208;-78
2022/06/30 07:44:39;;;;;;;8.67;4.40;;;;;;;;;;4972891;28;20257;-73
2022/06/30 07:47:05;;;;;;;4.77;4.37;;;;;;;;;;4965159;28;20283;-73
2022/06/30 07:49:32;;;;;;;7.10;4.70;;;;;;;;;;4969591;28;20535;-73
2022/06/30 07:51:58;;;;;;;5.77;4.27;;;;;;;;;;4963792;28;20216;-73
2022/06/30 07:54:24;;;;;;;7.07;4.80;;;;;;;;;;4953300;28;20522;-75
2022/06/30 07:56:50;;;;;;;9.30;5.27;;;;;;;;;;4966188;28;20685;-75
2022/06/30 07:59:16;;;;;;;5.30;4.80;;;;;;;;;;4976603;28;20218;-74
2022/06/30 08:01:43;;;;;;;5.63;4.33;;;;;;;;;;4964514;28;20219;-74
2022/06/30 08:04:11;;;;;;;5.30;4.80;;;;;;;;;;4971676;28;20642;-74
2022/06/30 08:06:38;;;;;;;5.23;4.57;;;;;;;;;;4975667;28;20661;-74
2022/06/30 08:09:04;;;;;;;4.90;4.00;;;;;;;;;;4968040;28;20182;-74
2022/06/30 08:11:31;;;;;;;6.37;4.27;;;;;;;;;;4971124;28;20210;-74
2022/06/30 08:13:57;;;;;;;6.17;4.20;;;;;;;;;;4968603;28;20275;-74
2022/06/30 08:16:24;;;;;;;5.57;4.17;;;;;;;;;;4971578;28;20206;-75
2022/06/30 08:18:50;;;;;;;5.07;4.00;;;;;;;;;;4973346;28;20254;-75
2022/06/30 08:21:16;;;;;;;4.40;4.00;;;;;;;;;;4968707;28;20236;-74
2022/06/30 08:23:42;;;;;;;7.83;4.23;;;;;;;;;;4971242;28;20201;-74
2022/06/30 08:26:09;;;;;;;7.10;3.97;;;;;;;;;;4967797;28;20185;-74
2022/06/30 08:28:35;;;;;;;5.40;3.90;;;;;;;;;;4954237;28;20259;-74
2022/06/30 08:31:02;;;;;;;5.00;4.40;;;;;;;;;;4969743;28;20205;-74
2022/06/30 08:33:28;;;;;;;5.67;3.60;;;;;;;;;;4965142;28;20192;-75
2022/06/30 08:35:54;;;;;;;5.80;3.80;;;;;;;;;;4967982;28;20254;-74
2022/06/30 08:38:23;;;;;;;4.57;3.60;;;;;;;;;;4969155;28;20235;-75
2022/06/30 08:43:35;;;;;;;4.20;3.60;;;;;;;;;;4971653;28;20177;-75
2022/06/30 08:46:02;;;;;;;4.07;3.67;;;;;;;;;;4966570;28;20179;-74
2022/06/30 08:48:29;;;;;;;3.27;2.97;;;;;;;;;;4971430;28;20530;-75
2022/06/30 08:50:58;;;;;;;4.37;3.40;;;;;;;;;;4968509;28;20756;-74
2022/06/30 08:53:26;;;;;;;4.60;3.37;;;;;;;;;;4957718;28;20270;-75
2022/06/30 08:55:52;;;;;;;3.40;3.10;;;;;;;;;;4969101;28;20220;-75
2022/06/30 08:58:19;;;;;;;5.80;3.30;;;;;;;;;;4975307;28;20212;-74
2022/06/30 09:00:46;;;;;;;4.03;3.30;;;;;;;;;;4961835;28;20231;-75
2022/06/30 09:03:12;;;;;;;4.50;3.30;;;;;;;;;;4971413;28;20185;-74
2022/06/30 09:05:39;;;;;;;4.33;2.80;;;;;;;;;;4969253;28;20187;-74
2022/06/30 09:08:05;;;;;;;4.03;3.00;;;;;;;;;;4971048;28;20188;-75
2022/06/30 09:10:31;;;;;;;3.20;2.90;;;;;;;;;;4968348;28;20212;-74
2022/06/30 09:12:59;;;;;;;4.03;3.17;;;;;;;;;;4969667;28;20227;-74
2022/06/30 09:15:28;;;;;;;3.80;3.00;;;;;;;;;;4971257;28;20212;-75
2022/06/30 09:17:54;;;;;;;5.13;3.07;;;;;;;;;;4964727;28;20193;-74
2022/06/30 09:20:31;;;;;;;5.10;3.33;;;;;;;;;;4967497;28;20228;-74
2022/06/30 09:22:59;;;;;;;3.97;3.30;;;;;;;;;;4971297;28;20184;-74
2022/06/30 09:25:30;;;;;;;5.10;3.30;;;;;;;;;;4969930;28;20173;-74
2022/06/30 09:27:56;;;;;;;4.03;3.30;;;;;;;;;;4970931;28;20251;-74
2022/06/30 09:30:24;;;;;;;4.20;3.00;;;;;;;;;;4969075;28;20651;-74
2022/06/30 09:32:54;;;;;;;3.27;2.87;;;;;;;;;;4968766;28;20199;-74
2022/06/30 09:35:22;;;;;;;3.43;3.13;;;;;;;;;;4972762;28;20216;-74
2022/06/30 09:37:57;;;;;;;3.43;3.13;;;;;;;;;;4970767;28;20177;-74
2022/06/30 09:40:28;;;;;;;3.90;3.10;;;;;;;;;;4971535;28;20548;-75
2022/06/30 09:42:54;;;;;;;2.90;2.50;;;;;;;;;;4971702;28;20195;-74
2022/06/30 09:45:33;;;;;;;4.90;2.97;;;;;;;;;;4971955;28;20204;-74
2022/06/30 09:47:59;;;;;;;3.90;2.83;;;;;;;;;;4965969;28;20187;-72
2022/06/30 09:50:25;;;;;;;3.27;2.90;;;;;;;;;;4974605;28;20549;-73
2022/06/30 09:53:09;;;;;;;3.47;2.83;;;;;;;;;;4969531;28;20195;-73
2022/06/30 09:55:41;;;;;;;2.80;2.60;;;;;;;;;;4973732;28;20684;-73
2022/06/30 09:58:08;;;;;;;2.80;2.60;;;;;;;;;;4953499;28;20276;-73
2022/06/30 10:00:47;;;;;;;4.07;2.83;;;;;;;;;;4972175;28;20220;-73
2022/06/30 10:03:16;;;;;;;3.23;2.70;;;;;;;;;;4970940;28;20189;-73
2022/06/30 10:05:44;;;;;;;5.03;2.70;;;;;;;;;;4975189;28;20276;-73
2022/06/30 10:08:14;;;;;;;3.23;2.93;;;;;;;;;;4971141;28;20197;-73
2022/06/30 10:10:43;;;;;;;4.07;3.13;;;;;;;;;;4973318;28;20208;-73
2022/06/30 10:13:13;;;;;;;3.40;3.10;;;;;;;;;;4970078;28;20251;-73
2022/06/30 10:15:40;;;;;;;5.20;2.87;;;;;;;;;;4971128;28;20220;-73
2022/06/30 10:18:08;;;;;;;4.53;2.60;;;;;;;;;;4970287;28;20189;-73
2022/06/30 10:20:38;;;;;;;2.80;2.60;;;;;;;;;;4971655;28;20233;-73
2022/06/30 10:23:13;;;;;;;3.37;2.70;;;;;;;;;;4958139;28;20208;-73
2022/06/30 10:25:40;;;;;;;4.93;2.63;;;;;;;;;;4960375;28;20197;-73
2022/06/30 10:28:07;;;;;;;5.17;2.90;;;;;;;;;;4974249;28;20201;-73
2022/06/30 10:30:50;;;;;;;3.20;2.90;;;;;;;;;;4968071;28;20205;-73
2022/06/30 10:33:36;;;;;;;3.23;2.93;;;;;;;;;;4972549;28;20220;-73
2022/06/30 10:36:13;;;;;;;3.07;2.63;;;;;;;;;;4970485;28;20754;-74
2022/06/30 10:39:05;;;;;;;3.50;2.70;;;;;;;;;;4974938;28;20208;-73
2022/06/30 10:41:31;;;;;;;3.90;2.93;;;;;;;;;;4941536;28;20212;-73
2022/06/30 10:44:04;;;;;;;2.93;2.73;;;;;;;;;;4976954;28;20168;-71
2022/06/30 10:46:34;;;;;;;4.13;2.60;;;;;;;;;;4978982;28;20309;-72
2022/06/30 10:49:07;;;;;;;3.10;2.80;;;;;;;;;;4976040;28;20661;-72
2022/06/30 10:51:33;;;;;;;3.13;2.87;;;;;;;;;;4972536;28;20208;-73
2022/06/30 10:53:59;;;;;;;3.13;2.83;;;;;;;;;;4972101;28;20176;-73
2022/06/30 10:56:46;;;;;;;5.00;2.73;;;;;;;;;;4973110;28;20251;-73
2022/06/30 10:59:13;;;;;;;3.30;2.50;;;;;;;;;;4954833;28;20569;-73
2022/06/30 11:01:40;;;;;;;2.90;2.60;;;;;;;;;;4965644;28;20243;-73
2022/06/30 11:04:06;;;;;;;7.17;2.97;;;;;;;;;;4974786;28;20185;-73
2022/06/30 11:06:51;;;;;;;3.00;2.77;;;;;;;;;;4971012;28;20669;-74
2022/06/30 11:09:17;;;;;;;3.63;2.90;;;;;;;;;;4969571;28;20184;-74
2022/06/30 11:11:43;;;;;;;3.87;2.97;;;;;;;;;;4963395;28;20214;-73
2022/06/30 11:14:10;;;;;;;3.53;2.93;;;;;;;;;;4970456;28;20185;-74
2022/06/30 11:16:37;;;;;;;3.20;2.90;;;;;;;;;;4969101;28;20217;-75
2022/06/30 11:19:04;;;;;;;3.40;3.10;;;;;;;;;;4965198;28;20268;-75
2022/06/30 11:21:31;;;;;;;3.87;3.23;;;;;;;;;;4964408;28;20668;-73
2022/06/30 11:24:00;;;;;;;3.67;2.90;;;;;;;;;;4965873;28;20200;-71
2022/06/30 11:29:14;;;;;;;4.33;2.87;;;;;;;;;;4963895;28;20207;-78
2022/06/30 11:31:41;;;;;;;4.30;3.07;;;;;;;;;;4968555;28;20309;-74
2022/06/30 11:34:08;;;;;;;3.20;3.00;;;;;;;;;;4970828;28;20197;-75
2022/06/30 11:36:35;;;;;;;3.87;3.00;;;;;;;;;;4970320;28;20691;-75
2022/06/30 11:39:05;;;;;;;4.73;2.77;;;;;;;;;;4967263;28;20244;-75
2022/06/30 11:44:17;;;;;;;3.00;2.80;;;;;;;;;;4954024;28;20202;-76
2022/06/30 11:46:47;;;;;;;2.90;2.70;;;;;;;;;;4969590;28;20202;-74
2022/06/30 11:49:13;;;;;;;4.90;2.57;;;;;;;;;;4966939;28;20217;-75
2022/06/30 11:51:39;;;;;;;4.30;2.67;;;;;;;;;;4967388;28;20210;-75
2022/06/30 11:54:06;;;;;;;2.70;2.17;;;;;;;;;;4968421;28;20306;-75
2022/06/30 11:56:52;;;;;;;4.60;2.50;;;;;;;;;;4966368;28;20218;-75
2022/06/30 11:59:18;;;;;;;3.53;2.40;;;;;;;;;;4948025;28;20214;-75
2022/06/30 12:02:03;;;;;;;3.67;2.40;;;;;;;;;;4967679;28;20218;-75
2022/06/30 12:04:30;;;;;;;3.07;2.30;;;;;;;;;;4966261;28;20247;-75
2022/06/30 12:06:56;;;;;;;3.03;2.30;;;;;;;;;;4968583;28;20648;-75
2022/06/30 12:09:22;;;;;;;2.30;2.10;;;;;;;;;;4966000;28;20257;-77
2022/06/30 12:11:51;;;;;;;2.27;2.07;;;;;;;;;;4966753;28;20215;-72
2022/06/30 12:14:17;;;;;;;2.87;2.00;;;;;;;;;;4969485;28;20186;-73
2022/06/30 12:16:44;;;;;;;2.50;2.27;;;;;;;;;;4966463;28;20222;-77
2022/06/30 12:19:15;;;;;;;5.20;2.20;;;;;;;;;;4971161;28;20242;-74
2022/06/30 12:21:41;;;;;;;3.00;2.43;;;;;;;;;;4969780;28;20308;-72
2022/06/30 12:24:08;;;;;;;3.27;2.20;;;;;;;;;;4967349;28;20666;-72
2022/06/30 12:26:34;;;;;;;3.00;2.10;;;;;;;;;;4969053;28;20251;-72
2022/06/30 12:29:10;;;;;;;4.30;1.80;;;;;;;;;;4967890;28;20235;-72
2022/06/30 12:31:36;;;;;;;2.30;1.90;;;;;;;;;;4964776;28;20205;-73
2022/06/30 12:34:03;;;;;;;2.00;1.90;;;;;;;;;;4969499;28;20185;-72
2022/06/30 12:36:33;;;;;;;2.13;1.93;;;;;;;;;;4969025;28;20210;-73
2022/06/30 12:39:14;;;;;;;2.43;1.83;;;;;;;;;;4969669;28;20189;-72
2022/06/30 12:41:40;;;;;;;2.27;1.90;;;;;;;;;;4967410;28;20222;-73
2022/06/30 12:44:07;;;;;;;2.43;2.00;;;;;;;;;;4970148;28;20188;-73
2022/06/30 12:46:45;;;;;;;2.23;1.80;;;;;;;;;;4968723;28;20190;-73
2022/06/30 12:49:24;;;;;;;1.87;1.77;;;;;;;;;;4966199;28;20187;-73
2022/06/30 12:51:50;;;;;;;2.10;1.90;;;;;;;;;;4966137;28;20210;-73
2022/06/30 12:54:23;;;;;;;2.57;1.80;;;;;;;;;;4965131;28;20185;-73
2022/06/30 12:56:52;;;;;;;3.15;1.75;;;;;;;;;;4967076;28;20667;-73
2022/06/30 12:59:19;;;;;;;2.38;1.95;;;;;;;;;;4967077;28;20786;-73
2022/06/30 13:01:56;;;;;;;1.80;1.70;;;;;;;;;;4963172;28;20216;-73
2022/06/30 13:04:23;;;;;;;2.25;1.85;;;;;;;;;;4945061;28;20188;-73
2022/06/30 13:06:51;;;;;;;2.35;1.70;;;;;;;;;;4966723;28;20202;-72
2022/06/30 13:09:18;;;;;;;1.83;1.73;;;;;;;;;;4962294;28;20199;-73
2022/06/30 13:11:48;;;;;;;2.40;2.17;;;;;;;;;;4961647;28;20272;-73
2022/06/30 13:14:15;;;;;;;3.20;1.90;;;;;;;;;;4963963;28;20731;-73
2022/06/30 13:16:42;;;;;;;2.58;1.60;;;;;;;;;;4944106;28;20688;-73
2022/06/30 13:19:08;;;;;;;2.92;1.60;;;;;;;;;;4959146;28;20379;-73
2022/06/30 13:21:35;;;;;;;2.47;1.67;;;;;;;;;;4957664;28;20208;-72
2022/06/30 13:24:02;;;;;;;2.58;2.00;;;;;;;;;;4960706;28;20603;-73
2022/06/30 13:26:28;;;;;;;3.42;2.05;;;;;;;;;;4964866;28;20683;-73
2022/06/30 13:28:55;;;;;;;1.90;1.80;;;;;;;;;;4967587;28;20203;-73
2022/06/30 13:31:21;;;;;;;4.22;2.00;;;;;;;;;;4967127;28;20629;-73
2022/06/30 13:33:50;;;;;;;2.17;1.77;;;;;;;;;;4965882;28;20315;-73
2022/06/30 13:36:17;;;;;;;1.90;1.80;;;;;;;;;;4969113;28;20213;-73
2022/06/30 13:38:43;;;;;;;4.13;2.22;;;;;;;;;;4968708;28;20217;-73
2022/06/30 13:41:09;;;;;;;2.17;1.92;;;;;;;;;;4964863;28;20211;-73
2022/06/30 13:43:35;;;;;;;2.40;2.20;;;;;;;;;;4965307;28;20187;-71
2022/06/30 13:46:02;;;;;;;2.50;1.92;;;;;;;;;;4968875;28;20298;-72
2022/06/30 13:48:28;;;;;;;4.57;2.22;;;;;;;;;;4967024;28;20666;-72
2022/06/30 13:50:54;;;;;;;2.83;2.20;;;;;;;;;;4971334;28;20727;-72
2022/06/30 13:53:21;;;;;;;3.90;2.10;;;;;;;;;;4967575;28;20262;-72
2022/06/30 13:55:48;;;;;;;2.83;2.03;;;;;;;;;;4971987;28;20349;-72
2022/06/30 13:58:14;;;;;;;2.60;2.15;;;;;;;;;;4965518;28;20195;-73
2022/06/30 14:00:42;;;;;;;2.80;2.25;;;;;;;;;;4967501;28;20248;-72
2022/06/30 14:03:09;;;;;;;3.00;2.03;;;;;;;;;;4968126;28;20184;-72
2022/06/30 14:05:35;;;;;;;2.47;2.28;;;;;;;;;;4967620;28;20188;-72
2022/06/30 14:08:01;;;;;;;2.50;2.28;;;;;;;;;;4966280;28;20184;-72
2022/06/30 14:10:27;;;;;;;2.30;2.10;;;;;;;;;;4964242;28;20196;-75
2022/06/30 14:12:56;;;;;;;2.78;2.25;;;;;;;;;;4968130;28;20200;-78
2022/06/30 14:15:23;;;;;;;3.70;2.00;;;;;;;;;;4967719;28;20195;-73
2022/06/30 14:17:49;;;;;;;2.60;2.20;;;;;;;;;;4966458;28;20184;-74
2022/06/30 14:20:16;;;;;;;3.10;2.40;;;;;;;;;;4969653;28;20683;-73
2022/06/30 14:22:42;;;;;;;5.80;2.15;;;;;;;;;;4969467;28;20273;-74
2022/06/30 14:25:09;;;;;;;3.45;2.50;;;;;;;;;;4968953;28;20229;-73
2022/06/30 14:27:36;;;;;;;2.10;1.92;;;;;;;;;;4968666;28;20195;-74
2022/06/30 14:30:03;;;;;;;2.42;2.20;;;;;;;;;;4970936;28;20656;-73
2022/06/30 14:32:31;;;;;;;2.45;1.90;;;;;;;;;;4966993;28;20209;-74
2022/06/30 14:34:57;;;;;;;3.30;2.30;;;;;;;;;;4970459;28;20173;-74
2022/06/30 14:37:24;;;;;;;2.95;2.25;;;;;;;;;;4969602;28;20234;-73
2022/06/30 14:39:51;;;;;;;2.47;2.28;;;;;;;;;;4970215;28;20180;-74
2022/06/30 14:45:03;;;;;;;2.50;2.25;;;;;;;;;;4971830;28;20189;-74
2022/06/30 14:47:29;;;;;;;3.00;2.20;;;;;;;;;;4971839;28;20252;-74
2022/06/30 14:49:56;;;;;;;2.65;2.45;;;;;;;;;;4969284;28;20188;-74
2022/06/30 14:52:22;;;;;;;2.55;2.25;;;;;;;;;;4974455;28;20703;-74
2022/06/30 14:54:48;;;;;;;2.47;2.28;;;;;;;;;;4970270;28;20224;-74
2022/06/30 14:57:14;;;;;;;2.85;2.38;;;;;;;;;;4971453;28;20204;-74
2022/06/30 14:59:41;;;;;;;3.83;2.42;;;;;;;;;;4971514;28;20180;-74
2022/06/30 15:02:08;;;;;;;2.55;2.35;;;;;;;;;;4970309;28;20209;-74
2022/06/30 15:04:35;;;;;;;2.58;2.38;;;;;;;;;;4969076;28;20212;-74
2022/06/30 15:07:01;;;;;;;3.70;2.10;;;;;;;;;;4969258;28;20637;-74
2022/06/30 15:09:29;;;;;;;2.58;2.38;;;;;;;;;;4969443;28;20296;-74
2022/06/30 15:11:55;;;;;;;2.50;2.30;;;;;;;;;;4972197;28;20208;-74